Time;durP1;ratioP1;P1;durP2;ratioP2;P2;SDS_P1;SDS_P2;PMS_P1;PMS_P2;Temp;Humidity;BMP_temperature;BMP_pressure;BME280_temperature;BME280_humidity;BME280_pressure;Samples;Min_cycle;Max_cycle;Signal;HPM_P1;HPM_P2
2021/11/15 00:00:48;;;;;;;33.65;24.50;;;;;;;;;;5054637;28;20025;-75
2021/11/15 00:03:15;;;;;;;31.80;24.65;;;;;;;;;;5053632;28;20056;-75
2021/11/15 00:05:41;;;;;;;31.13;24.65;;;;;;;;;;5054671;28;20029;-78
2021/11/15 00:08:07;;;;;;;38.40;29.00;;;;;;;;;;5053639;28;20045;-78
2021/11/15 00:10:34;;;;;;;45.25;32.20;;;;;;;;;;5054505;28;20032;-78
2021/11/15 00:13:00;;;;;;;47.35;33.17;;;;;;;;;;5054716;28;20031;-78
2021/11/15 00:15:29;;;;;;;42.42;31.48;;;;;;;;;;5054657;28;20036;-78
2021/11/15 00:17:55;;;;;;;40.10;30.38;;;;;;;;;;5054655;28;20094;-74
2021/11/15 00:20:21;;;;;;;46.65;31.73;;;;;;;;;;5051862;28;20044;-77
2021/11/15 00:22:48;;;;;;;38.55;29.55;;;;;;;;;;5054232;28;20032;-77
2021/11/15 00:25:14;;;;;;;36.08;28.33;;;;;;;;;;5054534;28;20032;-79
2021/11/15 00:27:41;;;;;;;42.15;31.00;;;;;;;;;;5054086;28;20028;-76
2021/11/15 00:30:08;;;;;;;38.65;31.23;;;;;;;;;;5054357;28;20074;-78
2021/11/15 00:32:34;;;;;;;39.95;30.30;;;;;;;;;;5054179;28;20029;-75
2021/11/15 00:35:01;;;;;;;39.05;30.20;;;;;;;;;;5054312;28;20077;-76
2021/11/15 00:37:27;;;;;;;39.42;28.95;;;;;;;;;;5054046;28;20045;-77
2021/11/15 00:39:53;;;;;;;37.22;27.40;;;;;;;;;;5053862;28;20036;-79
2021/11/15 00:42:19;;;;;;;41.97;30.58;;;;;;;;;;5054033;28;20085;-75
2021/11/15 00:44:45;;;;;;;71.65;48.70;;;;;;;;;;5053861;28;20028;-77
2021/11/15 00:47:11;;;;;;;73.63;48.33;;;;;;;;;;5053999;28;20028;-77
2021/11/15 00:49:38;;;;;;;49.25;36.13;;;;;;;;;;5053899;28;20472;-75
2021/11/15 00:52:05;;;;;;;53.17;37.33;;;;;;;;;;5053853;28;20033;-78
2021/11/15 00:54:31;;;;;;;36.58;26.40;;;;;;;;;;5053842;28;20083;-74
2021/11/15 00:56:57;;;;;;;30.73;24.13;;;;;;;;;;5053373;28;20033;-77
2021/11/15 00:59:23;;;;;;;37.30;24.95;;;;;;;;;;5053819;28;20096;-76
2021/11/15 01:01:50;;;;;;;35.08;26.30;;;;;;;;;;5053405;28;20029;-77
2021/11/15 01:04:16;;;;;;;45.53;31.08;;;;;;;;;;5053681;28;20025;-75
2021/11/15 01:06:42;;;;;;;49.35;33.60;;;;;;;;;;5053503;28;20032;-75
2021/11/15 01:09:08;;;;;;;52.75;36.63;;;;;;;;;;5052222;28;20380;-77
2021/11/15 01:11:34;;;;;;;53.33;35.45;;;;;;;;;;5053596;28;20040;-76
2021/11/15 01:14:01;;;;;;;50.97;33.33;;;;;;;;;;5053218;28;20068;-76
2021/11/15 01:16:28;;;;;;;49.35;34.45;;;;;;;;;;5053319;28;20029;-75
2021/11/15 01:18:54;;;;;;;53.47;36.67;;;;;;;;;;5053080;28;20041;-77
2021/11/15 01:21:27;;;;;;;51.45;34.72;;;;;;;;;;5053005;28;20087;-76
2021/11/15 01:23:53;;;;;;;56.05;37.92;;;;;;;;;;5052949;28;20063;-75
2021/11/15 01:26:19;;;;;;;51.30;36.42;;;;;;;;;;5051953;28;20033;-74
2021/11/15 01:28:45;;;;;;;53.70;35.75;;;;;;;;;;5052922;28;20031;-77
2021/11/15 01:31:11;;;;;;;41.35;31.10;;;;;;;;;;5052844;28;20477;-74
2021/11/15 01:33:37;;;;;;;44.03;30.55;;;;;;;;;;5053181;28;20456;-75
2021/11/15 01:36:03;;;;;;;39.97;28.42;;;;;;;;;;5052847;28;20104;-76
2021/11/15 01:38:30;;;;;;;38.20;26.70;;;;;;;;;;5052877;28;20480;-77
2021/11/15 01:40:56;;;;;;;34.70;26.83;;;;;;;;;;5052812;28;20490;-74
2021/11/15 01:43:22;;;;;;;36.65;28.20;;;;;;;;;;5053032;28;20425;-75
2021/11/15 01:45:48;;;;;;;36.72;26.23;;;;;;;;;;5052916;28;20039;-76
2021/11/15 01:48:14;;;;;;;40.65;27.85;;;;;;;;;;5052852;28;20479;-76
2021/11/15 01:50:41;;;;;;;33.58;26.83;;;;;;;;;;5052848;28;20031;-77
2021/11/15 01:53:08;;;;;;;35.58;25.42;;;;;;;;;;5052480;28;20029;-77
2021/11/15 01:55:36;;;;;;;33.67;26.70;;;;;;;;;;5052712;28;20083;-75
2021/11/15 01:58:03;;;;;;;33.25;24.33;;;;;;;;;;5052304;28;20056;-76
2021/11/15 02:00:32;;;;;;;32.60;24.88;;;;;;;;;;5052773;28;20469;-75
2021/11/15 02:02:59;;;;;;;33.80;25.42;;;;;;;;;;5052457;28;20025;-76
2021/11/15 02:05:25;;;;;;;30.98;23.42;;;;;;;;;;5052628;28;20442;-77
2021/11/15 02:07:51;;;;;;;29.00;21.67;;;;;;;;;;5052394;28;20025;-77
2021/11/15 02:10:17;;;;;;;30.45;22.33;;;;;;;;;;5052485;28;20025;-75
2021/11/15 02:12:43;;;;;;;30.75;24.15;;;;;;;;;;5051211;28;20033;-76
2021/11/15 02:15:11;;;;;;;33.60;25.70;;;;;;;;;;5050771;28;20029;-74
2021/11/15 02:17:38;;;;;;;33.67;24.38;;;;;;;;;;5052212;28;20044;-74
2021/11/15 02:20:06;;;;;;;35.22;25.95;;;;;;;;;;5052191;28;20036;-75
2021/11/15 02:22:32;;;;;;;33.83;23.45;;;;;;;;;;5052141;28;20190;-75
2021/11/15 02:25:00;;;;;;;32.75;23.88;;;;;;;;;;5052029;28;20033;-76
2021/11/15 02:27:26;;;;;;;34.53;24.75;;;;;;;;;;5052214;28;20029;-76
2021/11/15 02:29:53;;;;;;;36.47;26.88;;;;;;;;;;5052096;28;20042;-74
2021/11/15 02:32:19;;;;;;;35.20;25.27;;;;;;;;;;5052211;28;20024;-75
2021/11/15 02:34:45;;;;;;;34.65;25.58;;;;;;;;;;5052161;28;20037;-77
2021/11/15 02:37:11;;;;;;;36.30;26.63;;;;;;;;;;5051762;28;20024;-76
2021/11/15 02:39:38;;;;;;;37.22;26.20;;;;;;;;;;5052183;28;20036;-76
2021/11/15 02:42:04;;;;;;;32.95;25.83;;;;;;;;;;5051503;28;20029;-76
2021/11/15 02:44:30;;;;;;;32.53;24.10;;;;;;;;;;5050437;28;20389;-76
2021/11/15 02:46:57;;;;;;;33.13;23.98;;;;;;;;;;5052036;28;20044;-75
2021/11/15 02:49:23;;;;;;;34.05;25.55;;;;;;;;;;5050597;28;20087;-74
2021/11/15 02:51:50;;;;;;;33.65;24.83;;;;;;;;;;5050779;28;20029;-74
2021/11/15 02:54:16;;;;;;;35.45;26.50;;;;;;;;;;5050340;28;20032;-76
2021/11/15 02:56:42;;;;;;;36.10;25.35;;;;;;;;;;5051968;28;20509;-77
2021/11/15 02:59:09;;;;;;;36.38;25.45;;;;;;;;;;5051626;28;20468;-77
2021/11/15 03:01:35;;;;;;;34.97;23.73;;;;;;;;;;5051993;28;20059;-75
2021/11/15 03:04:01;;;;;;;34.20;25.17;;;;;;;;;;5051723;28;20469;-77
2021/11/15 03:06:27;;;;;;;32.75;24.05;;;;;;;;;;5050538;28;20769;-77
2021/11/15 03:08:53;;;;;;;34.67;24.50;;;;;;;;;;5050651;28;20033;-76
2021/11/15 03:11:19;;;;;;;36.65;24.98;;;;;;;;;;5051556;28;20079;-74
2021/11/15 03:13:47;;;;;;;37.05;26.65;;;;;;;;;;5051759;28;20056;-77
2021/11/15 03:16:13;;;;;;;33.88;26.10;;;;;;;;;;5051351;28;20488;-75
2021/11/15 03:18:41;;;;;;;42.03;29.05;;;;;;;;;;5050285;28;20115;-76
2021/11/15 03:21:09;;;;;;;35.58;24.70;;;;;;;;;;5051412;28;20064;-76
2021/11/15 03:23:36;;;;;;;32.17;23.98;;;;;;;;;;5051808;28;20025;-77
2021/11/15 03:26:03;;;;;;;34.00;23.23;;;;;;;;;;5051594;28;20033;-77
2021/11/15 03:28:30;;;;;;;32.83;23.88;;;;;;;;;;5050465;28;20052;-75
2021/11/15 03:30:58;;;;;;;31.77;22.35;;;;;;;;;;5051521;28;20033;-75
2021/11/15 03:33:28;;;;;;;32.60;22.88;;;;;;;;;;5050191;28;20468;-74
2021/11/15 03:35:54;;;;;;;31.65;23.42;;;;;;;;;;5051572;28;20033;-78
2021/11/15 03:38:20;;;;;;;32.72;23.90;;;;;;;;;;5049773;28;20056;-76
2021/11/15 03:40:47;;;;;;;31.30;22.73;;;;;;;;;;5050297;28;20040;-77
2021/11/15 03:43:13;;;;;;;29.40;22.38;;;;;;;;;;5051156;28;20029;-78
2021/11/15 03:45:40;;;;;;;29.75;22.08;;;;;;;;;;5050258;28;20032;-76
2021/11/15 03:48:08;;;;;;;30.38;21.48;;;;;;;;;;5051244;28;20021;-76
2021/11/15 03:50:35;;;;;;;27.80;21.55;;;;;;;;;;5051446;28;20036;-78
2021/11/15 03:53:02;;;;;;;31.08;22.90;;;;;;;;;;5050140;28;20495;-76
2021/11/15 03:55:28;;;;;;;29.65;22.52;;;;;;;;;;5054402;28;20048;-77
2021/11/15 03:57:55;;;;;;;31.35;23.45;;;;;;;;;;5055009;28;20521;-78
2021/11/15 04:00:22;;;;;;;30.05;22.63;;;;;;;;;;5054588;28;20029;-75
2021/11/15 04:02:52;;;;;;;29.55;22.20;;;;;;;;;;5054938;28;20021;-75
2021/11/15 04:08:05;;;;;;;30.60;22.27;;;;;;;;;;5054562;28;20040;-76
2021/11/15 04:10:36;;;;;;;32.25;22.77;;;;;;;;;;5054685;28;20107;-77
2021/11/15 04:13:05;;;;;;;29.25;23.30;;;;;;;;;;5054509;28;20463;-77
2021/11/15 04:15:31;;;;;;;31.25;23.50;;;;;;;;;;5054627;28;20399;-77
2021/11/15 04:17:58;;;;;;;32.38;23.95;;;;;;;;;;5054123;28;20037;-74
2021/11/15 04:20:27;;;;;;;32.40;24.33;;;;;;;;;;5054244;28;20037;-77
2021/11/15 04:22:53;;;;;;;34.85;26.52;;;;;;;;;;5054049;28;20039;-78
2021/11/15 04:25:19;;;;;;;34.00;24.23;;;;;;;;;;5053021;28;20392;-75
2021/11/15 04:27:45;;;;;;;31.13;23.70;;;;;;;;;;5054293;28;20484;-77
2021/11/15 04:30:12;;;;;;;42.85;36.40;;;;;;;;;;5054407;28;20031;-74
2021/11/15 04:32:40;;;;;;;30.40;23.58;;;;;;;;;;5054325;28;20025;-76
2021/11/15 04:35:08;;;;;;;36.20;27.55;;;;;;;;;;5054141;28;20077;-76
2021/11/15 04:37:35;;;;;;;37.42;28.38;;;;;;;;;;5052846;28;20029;-75
2021/11/15 04:40:01;;;;;;;32.65;22.52;;;;;;;;;;5053955;28;20025;-75
2021/11/15 04:42:27;;;;;;;34.03;23.98;;;;;;;;;;5052766;28;20021;-76
2021/11/15 04:44:53;;;;;;;33.83;23.42;;;;;;;;;;5053877;28;20151;-77
2021/11/15 04:47:20;;;;;;;39.40;27.25;;;;;;;;;;5052666;28;20603;-78
2021/11/15 04:49:46;;;;;;;39.72;30.88;;;;;;;;;;5054002;28;20025;-75
2021/11/15 04:52:12;;;;;;;35.75;27.73;;;;;;;;;;5052357;28;20029;-78
2021/11/15 04:54:41;;;;;;;43.47;31.70;;;;;;;;;;5053718;28;20083;-77
2021/11/15 04:57:07;;;;;;;66.30;40.25;;;;;;;;;;5053689;28;20112;-75
2021/11/15 04:59:34;;;;;;;46.15;31.38;;;;;;;;;;5053778;28;20033;-78
2021/11/15 05:02:00;;;;;;;48.28;34.08;;;;;;;;;;5053592;28;20461;-78
2021/11/15 05:04:26;;;;;;;44.47;32.80;;;;;;;;;;5053434;28;20036;-78
2021/11/15 05:06:54;;;;;;;103.57;67.40;;;;;;;;;;5052679;28;20033;-78
2021/11/15 05:09:20;;;;;;;46.33;35.33;;;;;;;;;;5052092;28;20379;-75
2021/11/15 05:11:46;;;;;;;39.78;31.30;;;;;;;;;;5052825;28;20047;-77
2021/11/15 05:14:13;;;;;;;39.75;28.25;;;;;;;;;;5051623;28;20037;-76
2021/11/15 05:16:39;;;;;;;36.50;25.23;;;;;;;;;;5053122;28;20120;-76
2021/11/15 05:19:05;;;;;;;38.25;27.35;;;;;;;;;;5051822;28;20045;-76
2021/11/15 05:21:31;;;;;;;37.10;29.17;;;;;;;;;;5053123;28;20061;-79
2021/11/15 05:23:57;;;;;;;35.13;26.23;;;;;;;;;;5053116;28;20124;-76
2021/11/15 05:26:24;;;;;;;43.58;31.48;;;;;;;;;;5052067;28;20510;-76
2021/11/15 05:28:51;;;;;;;61.33;44.42;;;;;;;;;;5051335;28;20090;-79
2021/11/15 05:31:17;;;;;;;82.72;60.33;;;;;;;;;;5052469;28;20075;-78
2021/11/15 05:33:44;;;;;;;70.25;48.05;;;;;;;;;;5052500;28;20072;-79
2021/11/15 05:36:10;;;;;;;52.65;35.05;;;;;;;;;;5052174;28;20043;-77
2021/11/15 05:38:37;;;;;;;58.42;38.88;;;;;;;;;;5052299;28;20557;-78
2021/11/15 05:41:03;;;;;;;61.00;41.28;;;;;;;;;;5051925;28;20059;-77
2021/11/15 05:43:29;;;;;;;58.20;41.90;;;;;;;;;;5052423;28;20094;-73
2021/11/15 05:45:55;;;;;;;53.33;36.95;;;;;;;;;;5052332;28;20032;-76
2021/11/15 05:48:22;;;;;;;68.78;54.00;;;;;;;;;;5052460;28;20032;-76
2021/11/15 05:50:49;;;;;;;66.00;46.55;;;;;;;;;;5052334;28;20079;-74
2021/11/15 05:53:16;;;;;;;68.32;45.60;;;;;;;;;;5050461;28;20116;-79
2021/11/15 05:55:42;;;;;;;55.65;36.47;;;;;;;;;;5051574;28;20036;-78
2021/11/15 05:58:09;;;;;;;47.58;33.75;;;;;;;;;;5051217;28;20404;-76
2021/11/15 06:00:35;;;;;;;57.78;41.90;;;;;;;;;;5052578;28;20094;-79
2021/11/15 06:03:01;;;;;;;48.85;37.08;;;;;;;;;;5052675;28;20036;-78
2021/11/15 06:05:27;;;;;;;47.90;33.63;;;;;;;;;;5043876;28;20140;-79
2021/11/15 06:07:54;;;;;;;47.72;32.33;;;;;;;;;;5031586;28;20072;-78
2021/11/15 06:10:21;;;;;;;51.92;37.60;;;;;;;;;;5048272;28;20086;-79
2021/11/15 06:12:47;;;;;;;65.82;47.25;;;;;;;;;;5052505;28;20040;-79
2021/11/15 06:15:14;;;;;;;81.10;56.28;;;;;;;;;;5050876;28;20411;-80
2021/11/15 06:17:41;;;;;;;71.43;52.88;;;;;;;;;;5046859;28;20112;-77
2021/11/15 06:20:08;;;;;;;70.40;46.95;;;;;;;;;;5032078;28;20025;-75
2021/11/15 06:22:35;;;;;;;64.45;46.08;;;;;;;;;;5041228;28;20049;-76
2021/11/15 06:25:01;;;;;;;57.53;41.22;;;;;;;;;;5032393;28;20088;-78
2021/11/15 06:27:27;;;;;;;50.30;38.08;;;;;;;;;;5040621;28;20402;-78
2021/11/15 06:29:53;;;;;;;49.70;36.33;;;;;;;;;;5046003;28;20048;-78
2021/11/15 06:32:19;;;;;;;63.15;42.92;;;;;;;;;;5051015;28;20017;-78
2021/11/15 06:34:46;;;;;;;103.68;71.47;;;;;;;;;;5045811;28;20031;-77
2021/11/15 06:37:12;;;;;;;86.10;56.58;;;;;;;;;;5047116;28;20029;-76
2021/11/15 06:39:38;;;;;;;86.90;58.50;;;;;;;;;;5031063;28;20108;-78
2021/11/15 06:42:04;;;;;;;195.27;124.40;;;;;;;;;;5039102;28;20464;-76
2021/11/15 06:44:31;;;;;;;135.63;95.82;;;;;;;;;;5049207;28;20063;-77
2021/11/15 06:46:58;;;;;;;130.13;89.97;;;;;;;;;;5050964;28;20442;-76
2021/11/15 06:49:27;;;;;;;149.93;95.40;;;;;;;;;;5051322;28;20025;-77
2021/11/15 06:51:54;;;;;;;183.85;106.65;;;;;;;;;;5050641;28;20476;-78
2021/11/15 06:54:20;;;;;;;159.70;100.40;;;;;;;;;;5051148;28;20108;-78
2021/11/15 06:56:47;;;;;;;173.50;109.65;;;;;;;;;;5048785;28;20801;-77
2021/11/15 06:59:13;;;;;;;230.95;134.40;;;;;;;;;;5050071;28;20071;-79
2021/11/15 07:01:39;;;;;;;127.38;86.65;;;;;;;;;;5050261;28;20103;-78
2021/11/15 07:04:06;;;;;;;83.75;56.17;;;;;;;;;;5050661;28;20032;-77
2021/11/15 07:06:32;;;;;;;86.65;58.80;;;;;;;;;;5050547;28;20029;-77
2021/11/15 07:08:58;;;;;;;82.28;58.25;;;;;;;;;;5049593;28;20025;-80
2021/11/15 07:11:25;;;;;;;76.97;53.20;;;;;;;;;;5049361;28;20118;-76
2021/11/15 07:13:52;;;;;;;78.50;51.88;;;;;;;;;;5048777;28;20032;-76
2021/11/15 07:16:18;;;;;;;105.30;67.60;;;;;;;;;;5050633;28;20040;-76
2021/11/15 07:18:46;;;;;;;84.60;56.72;;;;;;;;;;5048629;28;20529;-79
2021/11/15 07:21:12;;;;;;;102.38;68.25;;;;;;;;;;5050628;28;20484;-75
2021/11/15 07:23:38;;;;;;;72.63;51.58;;;;;;;;;;5050468;28;20029;-80
2021/11/15 07:26:05;;;;;;;63.75;44.45;;;;;;;;;;5049464;28;20025;-79
2021/11/15 07:28:31;;;;;;;62.22;42.30;;;;;;;;;;5050367;28;20075;-77
2021/11/15 07:30:57;;;;;;;53.13;37.03;;;;;;;;;;5052599;28;20025;-78
2021/11/15 07:33:24;;;;;;;53.22;36.00;;;;;;;;;;5054281;28;20032;-77
2021/11/15 07:35:50;;;;;;;47.38;34.10;;;;;;;;;;5050636;28;20036;-77
2021/11/15 07:38:17;;;;;;;44.70;32.47;;;;;;;;;;5053379;28;20062;-76
2021/11/15 07:40:44;;;;;;;60.40;34.28;;;;;;;;;;5050191;28;20387;-80
2021/11/15 07:43:10;;;;;;;45.83;30.80;;;;;;;;;;5043216;28;20033;-79
2021/11/15 07:45:37;;;;;;;43.58;32.55;;;;;;;;;;5052392;28;20108;-76
2021/11/15 07:48:03;;;;;;;51.30;36.58;;;;;;;;;;5054023;28;20102;-77
2021/11/15 07:50:29;;;;;;;55.88;41.65;;;;;;;;;;5054024;28;20055;-77
2021/11/15 07:52:55;;;;;;;56.30;38.05;;;;;;;;;;5052542;28;20081;-77
2021/11/15 07:55:22;;;;;;;58.55;40.65;;;;;;;;;;5053828;28;20033;-76
2021/11/15 07:57:48;;;;;;;41.17;31.40;;;;;;;;;;5053563;28;20044;-75
2021/11/15 08:00:16;;;;;;;48.97;35.63;;;;;;;;;;5053711;28;20033;-77
2021/11/15 08:02:43;;;;;;;53.05;38.20;;;;;;;;;;5053495;28;20064;-76
2021/11/15 08:05:10;;;;;;;37.28;28.58;;;;;;;;;;5053853;28;20029;-76
2021/11/15 08:07:36;;;;;;;87.97;56.10;;;;;;;;;;5052832;28;20632;-77
2021/11/15 08:10:04;;;;;;;44.10;31.73;;;;;;;;;;5053209;28;20115;-76
2021/11/15 08:12:38;;;;;;;41.30;29.33;;;;;;;;;;5050362;28;20028;-76
2021/11/15 08:15:07;;;;;;;37.75;28.52;;;;;;;;;;5047162;28;20440;-76
2021/11/15 08:17:33;;;;;;;36.53;25.67;;;;;;;;;;5053326;28;20032;-76
2021/11/15 08:20:00;;;;;;;33.55;25.27;;;;;;;;;;5053139;28;20075;-77
2021/11/15 08:22:26;;;;;;;33.25;23.23;;;;;;;;;;5053049;28;20091;-75
2021/11/15 08:24:55;;;;;;;38.90;28.60;;;;;;;;;;5053311;28;20472;-76
2021/11/15 08:27:22;;;;;;;35.30;24.27;;;;;;;;;;5053321;28;20036;-75
2021/11/15 08:29:48;;;;;;;32.05;23.73;;;;;;;;;;5053291;28;20108;-77
2021/11/15 08:32:15;;;;;;;33.00;24.00;;;;;;;;;;5042262;28;20070;-76
2021/11/15 08:34:43;;;;;;;42.13;32.03;;;;;;;;;;5052825;28;20021;-77
2021/11/15 08:37:09;;;;;;;34.22;27.25;;;;;;;;;;5052795;28;20029;-78
2021/11/15 08:39:36;;;;;;;32.03;23.70;;;;;;;;;;5044183;28;20037;-76
2021/11/15 08:42:04;;;;;;;33.78;23.92;;;;;;;;;;5058779;28;20037;-76
2021/11/15 08:44:32;;;;;;;56.55;31.63;;;;;;;;;;5052217;28;20112;-76
2021/11/15 08:46:58;;;;;;;28.17;22.15;;;;;;;;;;5055742;28;20500;-77
2021/11/15 08:49:26;;;;;;;29.48;22.73;;;;;;;;;;5052867;28;20061;-74
2021/11/15 08:51:53;;;;;;;29.92;23.23;;;;;;;;;;5052995;28;20029;-74
2021/11/15 08:54:27;;;;;;;26.88;22.00;;;;;;;;;;5052544;28;20048;-78
2021/11/15 08:56:55;;;;;;;28.42;22.10;;;;;;;;;;5046609;28;20538;-78
2021/11/15 08:59:21;;;;;;;30.08;23.10;;;;;;;;;;5058247;28;20032;-74
2021/11/15 09:01:47;;;;;;;27.98;23.25;;;;;;;;;;5072099;28;20063;-75
2021/11/15 09:04:14;;;;;;;32.65;23.45;;;;;;;;;;5070971;28;20032;-77
2021/11/15 09:06:41;;;;;;;34.33;26.05;;;;;;;;;;5072330;28;20032;-75
2021/11/15 09:09:14;;;;;;;29.02;22.80;;;;;;;;;;5052036;28;20036;-75
2021/11/15 09:11:40;;;;;;;30.50;23.63;;;;;;;;;;5051803;28;20025;-75
2021/11/15 09:14:07;;;;;;;27.15;22.50;;;;;;;;;;5051517;28;20196;-76
2021/11/15 09:16:33;;;;;;;29.02;21.63;;;;;;;;;;5051801;28;20037;-75
2021/11/15 09:18:59;;;;;;;26.42;21.63;;;;;;;;;;5052327;28;20484;-77
2021/11/15 09:21:25;;;;;;;29.60;24.85;;;;;;;;;;5051328;28;20128;-77
2021/11/15 09:23:51;;;;;;;30.08;23.30;;;;;;;;;;5050850;28;20532;-77
2021/11/15 09:26:20;;;;;;;32.88;25.67;;;;;;;;;;5052089;28;20376;-75
2021/11/15 09:28:47;;;;;;;34.72;25.63;;;;;;;;;;5048246;28;20048;-77
2021/11/15 09:31:13;;;;;;;36.78;27.63;;;;;;;;;;5048999;28;20037;-78
2021/11/15 09:33:39;;;;;;;40.28;27.42;;;;;;;;;;5051998;28;20581;-78
2021/11/15 09:36:05;;;;;;;40.00;29.15;;;;;;;;;;5042011;28;20056;-78
2021/11/15 09:38:32;;;;;;;47.63;32.92;;;;;;;;;;5049358;28;20048;-80
2021/11/15 09:41:00;;;;;;;51.30;37.35;;;;;;;;;;5051782;28;20025;-77
2021/11/15 09:43:33;;;;;;;64.25;44.08;;;;;;;;;;5047445;28;20411;-76
2021/11/15 09:46:03;;;;;;;82.53;56.25;;;;;;;;;;5044640;28;20089;-79
2021/11/15 09:48:48;;;;;;;55.70;42.67;;;;;;;;;;5047270;28;20044;-75
2021/11/15 09:51:14;;;;;;;;;;;;;;;;;;5048372;28;20025;-77
2021/11/15 09:53:40;;;;;;;53.22;38.58;;;;;;;;;;5048214;28;19908;-76
2021/11/15 09:56:08;;;;;;;58.75;41.15;;;;;;;;;;5051881;28;20028;-77
2021/11/15 09:58:34;;;;;;;58.58;38.90;;;;;;;;;;5049467;28;20136;-77
2021/11/15 10:01:01;;;;;;;52.75;37.17;;;;;;;;;;5051788;28;20422;-76
2021/11/15 10:03:27;;;;;;;59.60;37.90;;;;;;;;;;5051250;28;20021;-74
2021/11/15 10:05:54;;;;;;;52.67;38.13;;;;;;;;;;5051399;28;20114;-76
2021/11/15 10:08:20;;;;;;;96.15;53.70;;;;;;;;;;5051130;28;20021;-78
2021/11/15 10:10:55;;;;;;;55.45;37.42;;;;;;;;;;5050688;28;20141;-75
2021/11/15 10:13:22;;;;;;;56.00;40.90;;;;;;;;;;5051066;28;20044;-77
2021/11/15 10:15:57;;;;;;;58.75;39.33;;;;;;;;;;5051301;28;20025;-75
2021/11/15 10:18:32;;;;;;;68.40;42.28;;;;;;;;;;5050561;28;20033;-77
2021/11/15 10:21:00;;;;;;;54.10;38.17;;;;;;;;;;5050990;28;20131;-75
2021/11/15 10:23:26;;;;;;;51.75;38.67;;;;;;;;;;5051044;28;20029;-79
2021/11/15 10:25:53;;;;;;;44.75;35.05;;;;;;;;;;5051388;28;20029;-76
2021/11/15 10:28:22;;;;;;;49.97;36.90;;;;;;;;;;5051012;28;20037;-76
2021/11/15 10:30:48;;;;;;;52.38;36.08;;;;;;;;;;5048979;28;20194;-78
2021/11/15 10:36:00;;;;;;;45.22;35.08;;;;;;;;;;5049898;28;20594;-77
2021/11/15 10:38:46;;;;;;;51.92;37.65;;;;;;;;;;5050869;28;20033;-75
2021/11/15 10:41:17;;;;;;;42.95;36.22;;;;;;;;;;5050176;28;20021;-76
2021/11/15 10:43:45;;;;;;;46.65;36.88;;;;;;;;;;5050911;28;20040;-75
2021/11/15 10:46:27;;;;;;;34.58;29.98;;;;;;;;;;5050919;28;20421;-75
2021/11/15 10:48:55;;;;;;;39.20;30.95;;;;;;;;;;5050631;28;20040;-78
2021/11/15 10:51:41;;;;;;;31.50;24.52;;;;;;;;;;5050098;28;20029;-76
2021/11/15 10:54:27;;;;;;;33.28;25.63;;;;;;;;;;5036936;28;20111;-76
2021/11/15 10:56:55;;;;;;;36.05;27.70;;;;;;;;;;5030640;28;20112;-76
2021/11/15 10:59:22;;;;;;;32.97;25.52;;;;;;;;;;5044751;28;20066;-75
2021/11/15 11:01:48;;;;;;;30.67;24.73;;;;;;;;;;5050649;28;20024;-77
2021/11/15 11:04:22;;;;;;;37.58;27.83;;;;;;;;;;5051616;28;20508;-76
2021/11/15 11:06:59;;;;;;;30.83;24.70;;;;;;;;;;5054488;28;20028;-78
2021/11/15 11:09:51;;;;;;;27.48;21.92;;;;;;;;;;5052774;28;20063;-76
2021/11/15 11:12:22;;;;;;;26.10;20.52;;;;;;;;;;5052926;28;20478;-76
2021/11/15 11:14:51;;;;;;;25.55;20.95;;;;;;;;;;5053973;28;20090;-76
2021/11/15 11:17:17;;;;;;;29.63;25.05;;;;;;;;;;5034503;28;20052;-76
2021/11/15 11:25:54;;;;;;;31.58;22.67;;;;;;;;;;5054006;28;20048;-75
2021/11/15 11:28:39;;;;;;;39.20;30.02;;;;;;;;;;5054692;28;20029;-75
2021/11/15 11:31:06;;;;;;;36.72;25.30;;;;;;;;;;5037533;28;20476;-76
2021/11/15 11:33:32;;;;;;;29.83;22.48;;;;;;;;;;5048480;28;20029;-78
2021/11/15 11:36:02;;;;;;;29.83;24.27;;;;;;;;;;5047159;28;20501;-78
2021/11/15 11:38:31;;;;;;;30.40;24.15;;;;;;;;;;5054137;28;20049;-75
2021/11/15 11:40:57;;;;;;;31.27;24.92;;;;;;;;;;5054000;28;20025;-76
2021/11/15 11:43:23;;;;;;;30.70;24.23;;;;;;;;;;5053763;28;20029;-76
2021/11/15 11:45:50;;;;;;;45.15;34.75;;;;;;;;;;5053252;28;20021;-76
2021/11/15 11:48:17;;;;;;;39.78;28.17;;;;;;;;;;5053801;28;20427;-76
2021/11/15 11:51:05;;;;;;;28.60;22.08;;;;;;;;;;5053775;28;20037;-76
2021/11/15 11:53:32;;;;;;;26.17;20.92;;;;;;;;;;5053267;28;20078;-76
2021/11/15 11:55:59;;;;;;;26.98;21.75;;;;;;;;;;5053306;28;20036;-75
2021/11/15 11:58:28;;;;;;;28.75;20.45;;;;;;;;;;5052178;28;20079;-76
2021/11/15 12:00:55;;;;;;;27.10;22.75;;;;;;;;;;5053382;28;20112;-75
2021/11/15 12:03:25;;;;;;;28.70;22.75;;;;;;;;;;5053356;28;20021;-75
2021/11/15 12:05:55;;;;;;;25.48;22.20;;;;;;;;;;5053627;28;20087;-77
2021/11/15 12:08:41;;;;;;;26.73;19.30;;;;;;;;;;5053601;28;20029;-77
2021/11/15 12:11:22;;;;;;;24.52;18.13;;;;;;;;;;5053718;28;20029;-76
2021/11/15 12:13:48;;;;;;;26.50;18.73;;;;;;;;;;5053435;28;20028;-77
2021/11/15 12:16:16;;;;;;;27.77;20.92;;;;;;;;;;5033340;28;20030;-76
2021/11/15 12:18:53;;;;;;;25.42;18.92;;;;;;;;;;5036945;28;20438;-77
2021/11/15 12:21:22;;;;;;;27.52;18.67;;;;;;;;;;5053450;28;20180;-76
2021/11/15 12:23:51;;;;;;;24.08;19.08;;;;;;;;;;5053220;28;20040;-75
2021/11/15 12:26:26;;;;;;;23.98;19.42;;;;;;;;;;5051711;28;20068;-77
2021/11/15 12:28:58;;;;;;;;;;;;;;;;;;5052682;28;20562;-77
2021/11/15 12:31:44;;;;;;;25.50;19.02;;;;;;;;;;5052885;28;19909;-77
2021/11/15 12:34:11;;;;;;;28.52;20.80;;;;;;;;;;5052569;28;20047;-78
2021/11/15 12:36:41;;;;;;;28.30;22.95;;;;;;;;;;5053248;28;20443;-76
2021/11/15 12:39:09;;;;;;;22.80;18.45;;;;;;;;;;5047961;28;20048;-76
2021/11/15 12:41:36;;;;;;;23.77;17.40;;;;;;;;;;5046845;28;20040;-75
2021/11/15 12:44:06;;;;;;;25.05;18.23;;;;;;;;;;5051066;28;20087;-76
2021/11/15 12:46:53;;;;;;;23.98;18.52;;;;;;;;;;5041862;28;20034;-75
2021/11/15 12:49:40;;;;;;;28.35;22.65;;;;;;;;;;5033547;28;20092;-74
2021/11/15 12:52:09;;;;;;;21.33;18.73;;;;;;;;;;5033994;28;20092;-75
2021/11/15 12:54:37;;;;;;;29.58;18.05;;;;;;;;;;5037278;28;20029;-76
2021/11/15 12:57:03;;;;;;;21.15;17.75;;;;;;;;;;5052092;28;20036;-76
2021/11/15 12:59:30;;;;;;;19.88;16.20;;;;;;;;;;5053626;28;20045;-76
2021/11/15 13:01:59;;;;;;;21.10;17.15;;;;;;;;;;5053302;28;20021;-75
2021/11/15 13:04:25;;;;;;;23.88;16.77;;;;;;;;;;5049543;28;20025;-76
2021/11/15 13:06:51;;;;;;;19.17;16.05;;;;;;;;;;5042301;28;20366;-75
2021/11/15 13:09:19;;;;;;;19.55;15.25;;;;;;;;;;5036082;28;20025;-77
2021/11/15 13:11:47;;;;;;;18.42;15.25;;;;;;;;;;5053257;28;20094;-75
2021/11/15 13:14:13;;;;;;;24.20;17.73;;;;;;;;;;5054088;28;20074;-77
2021/11/15 13:16:40;;;;;;;23.15;18.42;;;;;;;;;;5052763;28;20032;-75
2021/11/15 13:19:06;;;;;;;18.48;15.43;;;;;;;;;;5052463;28;20045;-74
2021/11/15 13:21:39;;;;;;;20.90;16.13;;;;;;;;;;5052312;28;20068;-75
2021/11/15 13:24:06;;;;;;;19.73;17.33;;;;;;;;;;5051346;28;20388;-75
2021/11/15 13:26:34;;;;;;;20.95;17.10;;;;;;;;;;5051806;28;20032;-75
2021/11/15 13:29:01;;;;;;;24.90;19.42;;;;;;;;;;5053193;28;20028;-75
2021/11/15 13:31:27;;;;;;;23.48;18.40;;;;;;;;;;5053869;28;20114;-76
2021/11/15 13:33:53;;;;;;;21.10;17.55;;;;;;;;;;5045728;28;20087;-75
2021/11/15 13:36:19;;;;;;;29.23;21.20;;;;;;;;;;5039211;28;20064;-75
2021/11/15 13:38:45;;;;;;;22.05;17.85;;;;;;;;;;5041747;28;20039;-74
2021/11/15 13:41:12;;;;;;;20.30;17.10;;;;;;;;;;5032880;28;20032;-77
2021/11/15 13:43:40;;;;;;;20.83;18.50;;;;;;;;;;5031570;28;20083;-74
2021/11/15 13:46:08;;;;;;;19.85;16.67;;;;;;;;;;5032795;28;20029;-78
2021/11/15 13:48:35;;;;;;;20.95;16.58;;;;;;;;;;5031708;28;20025;-72
2021/11/15 13:51:01;;;;;;;23.95;19.30;;;;;;;;;;5039038;28;20033;-74
2021/11/15 13:53:28;;;;;;;22.45;17.48;;;;;;;;;;5049582;28;20032;-74
2021/11/15 13:55:54;;;;;;;21.70;18.10;;;;;;;;;;5037386;28;20041;-75
2021/11/15 13:58:20;;;;;;;30.20;18.63;;;;;;;;;;5051731;28;20029;-75
2021/11/15 14:00:46;;;;;;;25.75;17.63;;;;;;;;;;5052940;28;20036;-74
2021/11/15 14:03:14;;;;;;;21.42;18.20;;;;;;;;;;5052276;28;20051;-75
2021/11/15 14:05:40;;;;;;;27.38;19.85;;;;;;;;;;5045538;28;20083;-76
2021/11/15 14:08:07;;;;;;;28.85;19.25;;;;;;;;;;5039076;28;20022;-72
2021/11/15 14:10:33;;;;;;;27.13;20.15;;;;;;;;;;5032701;28;20049;-75
2021/11/15 14:12:59;;;;;;;29.60;19.85;;;;;;;;;;5031987;28;20029;-75
2021/11/15 14:15:26;;;;;;;23.33;18.50;;;;;;;;;;5032731;28;20079;-74
2021/11/15 14:17:52;;;;;;;29.45;19.05;;;;;;;;;;5032702;28;20033;-76
2021/11/15 14:20:18;;;;;;;57.28;29.98;;;;;;;;;;5034991;28;20044;-75
2021/11/15 14:22:45;;;;;;;46.17;30.13;;;;;;;;;;5052529;28;20479;-74
2021/11/15 14:25:12;;;;;;;38.88;23.42;;;;;;;;;;5052271;28;20028;-76
2021/11/15 14:27:38;;;;;;;32.30;23.63;;;;;;;;;;5052470;28;20476;-75
2021/11/15 14:30:06;;;;;;;28.08;20.55;;;;;;;;;;5052106;28;20025;-74